createdAt,value
2018-05-17T00:00:52.281Z,989.68
2018-05-17T00:01:52.280Z,989.65
2018-05-17T00:02:52.279Z,989.67
2018-05-17T00:03:52.278Z,989.66
2018-05-17T00:04:52.273Z,989.67
2018-05-17T00:05:52.277Z,989.66
2018-05-17T00:06:52.274Z,989.61
2018-05-17T00:07:52.270Z,989.61
2018-05-17T00:08:52.267Z,989.68
2018-05-17T00:09:52.265Z,989.65
2018-05-17T00:10:52.263Z,989.65
2018-05-17T00:11:52.276Z,989.63
2018-05-17T00:12:52.262Z,989.65
2018-05-17T00:13:52.258Z,989.63
2018-05-17T00:14:52.331Z,989.62
2018-05-17T00:15:52.268Z,989.64
2018-05-17T00:16:52.261Z,989.62
2018-05-17T00:17:52.260Z,989.66
2018-05-17T00:18:52.261Z,989.65
2018-05-17T00:19:52.257Z,989.69
2018-05-17T00:20:52.252Z,989.73
2018-05-17T00:21:52.252Z,989.7
2018-05-17T00:22:52.245Z,989.66
2018-05-17T00:23:52.245Z,989.63
2018-05-17T00:24:52.242Z,989.62
2018-05-17T00:25:52.491Z,989.6
2018-05-17T00:26:52.240Z,989.63
2018-05-17T00:27:52.234Z,989.6
2018-05-17T00:28:52.234Z,989.62
2018-05-17T00:29:52.232Z,989.61
2018-05-17T00:30:52.231Z,989.65
2018-05-17T00:31:52.230Z,989.66
2018-05-17T00:32:52.226Z,989.63
2018-05-17T00:33:52.225Z,989.6
2018-05-17T00:34:52.225Z,989.59
2018-05-17T00:35:52.222Z,989.61
2018-05-17T00:36:52.225Z,989.6
2018-05-17T00:37:52.219Z,989.59
2018-05-17T00:38:52.218Z,989.6
2018-05-17T00:39:52.219Z,989.62
2018-05-17T00:40:52.221Z,989.6
2018-05-17T00:41:52.212Z,989.62
2018-05-17T00:42:52.215Z,989.57
2018-05-17T00:43:52.207Z,989.55
2018-05-17T00:44:52.207Z,989.53
2018-05-17T00:45:52.203Z,989.51
2018-05-17T00:46:52.207Z,989.5
2018-05-17T00:47:52.202Z,989.52
2018-05-17T00:48:52.200Z,989.49
2018-05-17T00:49:52.197Z,989.45
2018-05-17T00:50:52.196Z,989.48
2018-05-17T00:51:52.194Z,989.48
2018-05-17T00:52:52.194Z,989.49
2018-05-17T00:53:52.202Z,989.44
2018-05-17T00:54:52.192Z,989.45
2018-05-17T00:55:52.188Z,989.44
2018-05-17T00:56:52.185Z,989.4
2018-05-17T00:57:52.184Z,989.38
2018-05-17T00:58:52.186Z,989.38
2018-05-17T00:59:52.181Z,989.31
2018-05-17T01:00:52.178Z,989.32
2018-05-17T01:01:52.179Z,989.33
2018-05-17T01:02:52.180Z,989.3
2018-05-17T01:03:52.177Z,989.3
2018-05-17T01:04:52.179Z,989.31
2018-05-17T01:05:52.173Z,989.33
2018-05-17T01:06:52.175Z,989.31
2018-05-17T01:07:52.169Z,989.33
2018-05-17T01:08:52.168Z,989.31
2018-05-17T01:09:52.171Z,989.31
2018-05-17T01:10:52.169Z,989.31
2018-05-17T01:11:52.174Z,989.3
2018-05-17T01:12:52.162Z,989.33
2018-05-17T01:13:52.161Z,989.34
2018-05-17T01:14:52.159Z,989.33
2018-05-17T01:15:52.165Z,989.31
2018-05-17T01:16:52.165Z,989.31
2018-05-17T01:17:52.158Z,989.29
2018-05-17T01:18:52.158Z,989.3
2018-05-17T01:19:52.154Z,989.33
2018-05-17T01:20:52.153Z,989.23
2018-05-17T01:21:52.157Z,989.28
2018-05-17T01:22:52.145Z,989.28
2018-05-17T01:23:52.149Z,989.29
2018-05-17T01:24:52.144Z,989.28
2018-05-17T01:25:52.160Z,989.3
2018-05-17T01:26:52.141Z,989.29
2018-05-17T01:27:52.138Z,989.32
2018-05-17T01:28:52.136Z,989.29
2018-05-17T01:29:52.134Z,989.34
2018-05-17T01:30:52.134Z,989.44
2018-05-17T01:31:52.131Z,989.44
2018-05-17T01:32:52.132Z,989.36
2018-05-17T01:33:52.140Z,989.28
2018-05-17T01:34:52.126Z,989.22
2018-05-17T01:35:52.125Z,989.21
2018-05-17T01:36:52.121Z,989.22
2018-05-17T01:37:52.126Z,989.19
2018-05-17T01:38:52.117Z,989.23
2018-05-17T01:39:52.117Z,989.21
2018-05-17T01:40:52.135Z,989.21
2018-05-17T01:41:52.113Z,989.21
2018-05-17T01:42:52.112Z,989.2
2018-05-17T01:43:52.110Z,989.23
2018-05-17T01:44:52.108Z,989.23
2018-05-17T01:45:52.108Z,989.21
2018-05-17T01:46:52.106Z,989.2
2018-05-17T01:47:52.101Z,989.17
2018-05-17T01:48:52.102Z,989.21
2018-05-17T01:49:52.101Z,989.21
2018-05-17T01:50:52.105Z,989.25
2018-05-17T01:51:52.096Z,989.23
2018-05-17T01:52:52.095Z,989.2
2018-05-17T01:53:52.094Z,989.28
2018-05-17T01:54:52.090Z,989.25
2018-05-17T01:55:53.942Z,989.26
2018-05-17T01:56:52.116Z,989.26
2018-05-17T01:57:52.093Z,989.26
2018-05-17T01:58:52.092Z,989.25
2018-05-17T01:59:52.082Z,989.28
2018-05-17T02:00:52.084Z,989.25
2018-05-17T02:01:52.081Z,989.26
2018-05-17T02:02:52.077Z,989.28
2018-05-17T02:03:52.080Z,989.26
2018-05-17T02:04:52.077Z,989.28
2018-05-17T02:05:52.081Z,989.23
2018-05-17T02:06:52.075Z,989.26
2018-05-17T02:07:52.073Z,989.22
2018-05-17T02:08:52.076Z,989.24
2018-05-17T02:09:52.073Z,989.2
2018-05-17T02:10:52.088Z,989.19
2018-05-17T02:11:52.067Z,989.23
2018-05-17T02:12:52.065Z,989.23
2018-05-17T02:13:52.069Z,989.23
2018-05-17T02:14:52.062Z,989.24
2018-05-17T02:15:52.068Z,989.2
2018-05-17T02:16:52.060Z,989.25
2018-05-17T02:17:52.079Z,989.29
2018-05-17T02:18:52.056Z,989.3
2018-05-17T02:19:52.068Z,989.23
2018-05-17T02:20:52.053Z,989.25
2018-05-17T02:21:52.052Z,989.29
2018-05-17T02:22:52.051Z,989.25
2018-05-17T02:23:52.049Z,989.3
2018-05-17T02:24:52.050Z,989.28
2018-05-17T02:25:52.045Z,989.29
2018-05-17T02:26:52.050Z,989.3
2018-05-17T02:27:52.042Z,989.36
2018-05-17T02:28:52.042Z,989.3
2018-05-17T02:29:52.040Z,989.33
2018-05-17T02:30:52.040Z,989.32
2018-05-17T02:31:52.039Z,989.3
2018-05-17T02:32:52.041Z,989.29
2018-05-17T02:33:52.044Z,989.25
2018-05-17T02:34:52.050Z,989.29
2018-05-17T02:35:52.033Z,989.28
2018-05-17T02:36:52.035Z,989.31
2018-05-17T02:37:52.032Z,989.29
2018-05-17T02:38:52.034Z,989.31
2018-05-17T02:39:52.025Z,989.33
2018-05-17T02:40:52.036Z,989.32
2018-05-17T02:41:52.022Z,989.34
2018-05-17T02:42:52.025Z,989.33
2018-05-17T02:43:52.025Z,989.32
2018-05-17T02:44:52.044Z,989.37
2018-05-17T02:45:52.024Z,989.37
2018-05-17T02:46:52.026Z,989.33
2018-05-17T02:47:52.016Z,989.32
2018-05-17T02:48:52.019Z,989.31
2018-05-17T02:49:52.011Z,989.36
2018-05-17T02:50:52.017Z,989.34
2018-05-17T02:51:52.014Z,989.34
2018-05-17T02:52:52.016Z,989.32
2018-05-17T02:53:52.014Z,989.35
2018-05-17T02:54:52.013Z,989.38
2018-05-17T02:55:52.005Z,989.42
2018-05-17T02:56:52.029Z,989.41
2018-05-17T02:57:52.002Z,989.39
2018-05-17T02:58:52.000Z,989.36
2018-05-17T02:59:52.007Z,989.39
2018-05-17T03:00:51.997Z,989.42
2018-05-17T03:01:51.996Z,989.47
2018-05-17T03:02:52.007Z,989.44
2018-05-17T03:03:52.001Z,989.44
2018-05-17T03:04:52.000Z,989.44
2018-05-17T03:05:52.009Z,989.44
2018-05-17T03:06:51.988Z,989.45
2018-05-17T03:07:51.999Z,989.51
2018-05-17T03:08:51.984Z,989.49
2018-05-17T03:09:51.985Z,989.49
2018-05-17T03:10:51.988Z,989.5
2018-05-17T03:11:51.981Z,989.51
2018-05-17T03:12:51.978Z,989.47
2018-05-17T03:13:51.978Z,989.52
2018-05-17T03:14:51.980Z,989.54
2018-05-17T03:15:51.974Z,989.54
2018-05-17T03:16:51.975Z,989.53
2018-05-17T03:17:51.971Z,989.55
2018-05-17T03:18:51.971Z,989.55
2018-05-17T03:19:51.970Z,989.55
2018-05-17T03:20:51.982Z,989.56
2018-05-17T03:21:51.967Z,989.61
2018-05-17T03:22:51.966Z,989.58
2018-05-17T03:23:51.962Z,989.6
2018-05-17T03:24:51.960Z,989.6
2018-05-17T03:25:51.958Z,989.59
2018-05-17T03:26:51.969Z,989.62
2018-05-17T03:27:51.956Z,989.61
2018-05-17T03:28:51.955Z,989.63
2018-05-17T03:29:51.955Z,989.63
2018-05-17T03:30:51.952Z,989.61
2018-05-17T03:31:51.957Z,989.59
2018-05-17T03:32:51.952Z,989.6
2018-05-17T03:33:51.955Z,989.59
2018-05-17T03:34:51.946Z,989.56
2018-05-17T03:35:51.946Z,989.6
2018-05-17T03:36:51.946Z,989.6
2018-05-17T03:37:51.941Z,989.58
2018-05-17T03:38:51.941Z,989.62
2018-05-17T03:39:51.939Z,989.62
2018-05-17T03:40:51.946Z,989.62
2018-05-17T03:41:51.955Z,989.61
2018-05-17T03:42:51.934Z,989.63
2018-05-17T03:43:51.943Z,989.65
2018-05-17T03:44:51.934Z,989.62
2018-05-17T03:45:51.929Z,989.62
2018-05-17T03:46:51.928Z,989.63
2018-05-17T03:47:51.926Z,989.66
2018-05-17T03:48:51.924Z,989.66
2018-05-17T03:49:51.923Z,989.63
2018-05-17T03:50:51.923Z,989.62
2018-05-17T03:51:51.923Z,989.64
2018-05-17T03:52:51.920Z,989.62
2018-05-17T03:53:51.917Z,989.68
2018-05-17T03:54:51.919Z,989.68
2018-05-17T03:55:51.915Z,989.73
2018-05-17T03:56:51.912Z,989.72
2018-05-17T03:57:51.912Z,989.72
2018-05-17T03:58:51.911Z,989.72
2018-05-17T03:59:51.930Z,989.73
2018-05-17T04:00:51.908Z,989.72
2018-05-17T04:01:51.903Z,989.69
2018-05-17T04:02:51.906Z,989.72
2018-05-17T04:03:51.902Z,989.7
2018-05-17T04:04:51.900Z,989.71
2018-05-17T04:05:51.899Z,989.71
2018-05-17T04:06:51.900Z,989.72
2018-05-17T04:07:51.899Z,989.76
2018-05-17T04:08:51.896Z,989.77
2018-05-17T04:09:51.903Z,989.73
2018-05-17T04:10:51.898Z,989.75
2018-05-17T04:11:51.898Z,989.72
2018-05-17T04:12:51.890Z,989.77
2018-05-17T04:13:51.911Z,989.78
2018-05-17T04:14:51.887Z,989.81
2018-05-17T04:15:51.888Z,989.78
2018-05-17T04:16:51.883Z,989.82
2018-05-17T04:17:51.883Z,989.83
2018-05-17T04:18:51.880Z,989.79
2018-05-17T04:19:51.886Z,989.85
2018-05-17T04:20:51.878Z,989.85
2018-05-17T04:21:51.879Z,989.87
2018-05-17T04:22:51.886Z,989.85
2018-05-17T04:23:51.887Z,989.87
2018-05-17T04:24:51.872Z,989.87
2018-05-17T04:25:51.877Z,989.89
2018-05-17T04:26:51.942Z,989.89
2018-05-17T04:27:51.867Z,989.89
2018-05-17T04:28:51.868Z,989.9
2018-05-17T04:29:51.865Z,989.89
2018-05-17T04:30:51.876Z,989.86
2018-05-17T04:31:51.862Z,989.91
2018-05-17T04:32:51.861Z,989.87
2018-05-17T04:33:51.861Z,989.9
2018-05-17T04:34:51.868Z,989.88
2018-05-17T04:35:51.860Z,989.91
2018-05-17T04:36:51.856Z,989.91
2018-05-17T04:37:51.867Z,989.95
2018-05-17T04:38:51.864Z,989.92
2018-05-17T04:39:51.865Z,989.95
2018-05-17T04:40:51.854Z,989.92
2018-05-17T04:41:51.851Z,989.98
2018-05-17T04:42:51.851Z,989.99
2018-05-17T04:43:51.846Z,989.99
2018-05-17T04:44:51.848Z,990.01
2018-05-17T04:45:51.848Z,989.99
2018-05-17T04:46:51.840Z,990.01
2018-05-17T04:47:51.842Z,990.02
2018-05-17T04:48:51.841Z,990.04
2018-05-17T04:49:51.837Z,990.01
2018-05-17T04:50:51.837Z,990.03
2018-05-17T04:51:51.835Z,990.02
2018-05-17T04:52:51.836Z,990.05
2018-05-17T04:53:51.832Z,990.04
2018-05-17T04:54:51.859Z,990.03
2018-05-17T04:55:51.834Z,990.03
2018-05-17T04:56:51.839Z,990.05
2018-05-17T04:57:51.846Z,990.03
2018-05-17T04:58:51.826Z,990.04
2018-05-17T04:59:51.826Z,990.04
2018-05-17T05:00:51.821Z,990.05
2018-05-17T05:01:51.825Z,990.05
2018-05-17T05:02:51.824Z,990.05
2018-05-17T05:03:51.820Z,990.04
2018-05-17T05:04:51.815Z,990.04
2018-05-17T05:05:51.815Z,990.04
2018-05-17T05:06:51.836Z,990.05
2018-05-17T05:07:51.813Z,990.05
2018-05-17T05:08:51.813Z,990.08
2018-05-17T05:09:51.829Z,990.02
2018-05-17T05:10:51.808Z,990.05
2018-05-17T05:11:51.811Z,990
2018-05-17T05:12:51.806Z,990.04
2018-05-17T05:13:51.806Z,990.06
2018-05-17T05:14:51.804Z,990.08
2018-05-17T05:15:51.803Z,990.11
2018-05-17T05:16:51.806Z,990.14
2018-05-17T05:17:51.806Z,990.16
2018-05-17T05:18:51.806Z,990.22
2018-05-17T05:19:51.795Z,990.23
2018-05-17T05:20:51.794Z,990.25
2018-05-17T05:21:51.794Z,990.29
2018-05-17T05:22:51.796Z,990.24
2018-05-17T05:23:51.790Z,990.27
2018-05-17T05:24:51.790Z,990.23
2018-05-17T05:25:51.790Z,990.28
2018-05-17T05:26:51.786Z,990.3
2018-05-17T05:27:51.787Z,990.31
2018-05-17T05:28:51.788Z,990.31
2018-05-17T05:29:51.790Z,990.33
2018-05-17T05:30:51.787Z,990.35
2018-05-17T05:31:51.781Z,990.33
2018-05-17T05:32:51.783Z,990.36
2018-05-17T05:33:51.780Z,990.31
2018-05-17T05:34:51.777Z,990.35
2018-05-17T05:35:51.778Z,990.4
2018-05-17T05:36:51.774Z,990.41
2018-05-17T05:37:51.793Z,990.4
2018-05-17T05:38:51.773Z,990.36
2018-05-17T05:39:51.770Z,990.35
2018-05-17T05:40:51.771Z,990.36
2018-05-17T05:41:51.770Z,990.31
2018-05-17T05:42:51.768Z,990.29
2018-05-17T05:43:51.769Z,990.31
2018-05-17T05:44:51.765Z,990.27
2018-05-17T05:45:51.763Z,990.28
2018-05-17T05:46:51.765Z,990.26
2018-05-17T05:47:51.760Z,990.32
2018-05-17T05:48:51.767Z,990.33
2018-05-17T05:49:51.764Z,990.29
2018-05-17T05:50:51.761Z,990.26
2018-05-17T05:51:51.759Z,990.27
2018-05-17T05:52:51.765Z,990.26
2018-05-17T05:53:51.761Z,990.3
2018-05-17T05:54:51.759Z,990.25
2018-05-17T05:55:51.755Z,990.3
2018-05-17T05:56:51.753Z,990.29
2018-05-17T05:57:51.759Z,990.32
2018-05-17T05:58:51.757Z,990.34
2018-05-17T05:59:51.763Z,990.3
2018-05-17T06:00:51.745Z,990.31
2018-05-17T06:01:51.750Z,990.25
2018-05-17T06:02:51.748Z,990.32
2018-05-17T06:03:51.746Z,990.27
2018-05-17T06:04:51.745Z,990.3
2018-05-17T06:05:51.743Z,990.26
2018-05-17T06:06:51.740Z,990.29
2018-05-17T06:07:51.743Z,990.28
2018-05-17T06:08:51.738Z,990.27
2018-05-17T06:09:51.752Z,990.25
2018-05-17T06:10:51.753Z,990.25
2018-05-17T06:11:51.752Z,990.27
2018-05-17T06:12:51.737Z,990.29
2018-05-17T06:22:39.102Z,990.36
2018-05-17T06:23:39.099Z,990.42
2018-05-17T06:24:39.094Z,990.43
2018-05-17T06:25:39.095Z,990.38
2018-05-17T06:26:39.103Z,990.42
2018-05-17T06:27:39.341Z,990.37
2018-05-17T06:28:39.084Z,990.41
2018-05-17T06:29:39.081Z,990.44
2018-05-17T06:30:39.084Z,990.49
2018-05-17T06:31:39.084Z,990.48
2018-05-17T06:32:39.084Z,990.52
2018-05-17T06:33:39.077Z,990.53
2018-05-17T06:34:39.078Z,990.5
2018-05-17T06:35:39.078Z,990.54
2018-05-17T06:36:39.075Z,990.5
2018-05-17T06:37:39.082Z,990.48
2018-05-17T06:38:39.073Z,990.51
2018-05-17T06:39:39.071Z,990.49
2018-05-17T06:40:39.072Z,990.49
2018-05-17T06:41:39.070Z,990.47
2018-05-17T06:42:39.075Z,990.48
2018-05-17T06:43:39.068Z,990.5
2018-05-17T06:44:39.075Z,990.5
2018-05-17T06:45:39.071Z,990.53
2018-05-17T06:46:39.065Z,990.57
2018-05-17T06:47:39.068Z,990.53
2018-05-17T06:48:39.067Z,990.56
2018-05-17T06:49:39.063Z,990.61
2018-05-17T06:50:39.064Z,990.63
2018-05-17T06:51:39.066Z,990.63
2018-05-17T06:52:39.067Z,990.63
2018-05-17T06:53:39.079Z,990.67
2018-05-17T06:54:39.057Z,990.66
2018-05-17T06:55:39.063Z,990.68
2018-05-17T06:56:39.064Z,990.68
2018-05-17T06:57:39.355Z,990.69
2018-05-17T06:58:39.055Z,990.66
2018-05-17T06:59:39.057Z,990.67
2018-05-17T07:00:39.142Z,990.67
2018-05-17T07:01:39.059Z,990.68
2018-05-17T07:02:39.056Z,990.67
2018-05-17T07:03:39.056Z,990.67
2018-05-17T07:04:39.071Z,990.66
2018-05-17T07:05:39.054Z,990.68
2018-05-17T07:06:39.059Z,990.72
2018-05-17T07:07:39.053Z,990.7
2018-05-17T07:08:39.059Z,990.73
2018-05-17T07:09:39.057Z,990.73
2018-05-17T07:10:39.053Z,990.76
2018-05-17T07:11:39.063Z,990.8
2018-05-17T07:12:39.059Z,990.79
2018-05-17T07:13:39.058Z,990.81
2018-05-17T07:14:39.060Z,990.82
2018-05-17T07:15:39.055Z,990.8
2018-05-17T07:16:39.061Z,990.81
2018-05-17T07:17:39.057Z,990.83
2018-05-17T07:18:39.318Z,990.75
2018-05-17T07:19:39.062Z,990.81
2018-05-17T07:20:39.050Z,990.82
2018-05-17T07:21:39.047Z,990.86
2018-05-17T07:22:39.040Z,990.82
2018-05-17T07:23:39.036Z,990.86
2018-05-17T07:24:39.041Z,990.84
2018-05-17T07:25:39.039Z,990.87
2018-05-17T07:26:39.037Z,990.86
2018-05-17T07:27:39.039Z,990.87
2018-05-17T07:28:39.038Z,990.88
2018-05-17T07:29:39.041Z,990.91
2018-05-17T07:30:39.028Z,990.94
2018-05-17T07:31:39.033Z,990.93
2018-05-17T07:32:39.025Z,990.99
2018-05-17T07:33:39.024Z,991
2018-05-17T07:34:39.027Z,991.02
2018-05-17T07:35:39.026Z,991.05
2018-05-17T07:36:39.023Z,991.08
2018-05-17T07:37:39.027Z,991
2018-05-17T07:38:39.018Z,991.02
2018-05-17T07:39:39.021Z,991.09
2018-05-17T07:40:39.034Z,991.06
2018-05-17T07:41:39.018Z,991.05
2018-05-17T07:42:39.012Z,991.03
2018-05-17T07:43:39.017Z,991.05
2018-05-17T07:44:39.023Z,991.06
2018-05-17T07:45:39.020Z,991.09
2018-05-17T07:46:39.095Z,991.09
2018-05-17T07:47:39.017Z,991.11
2018-05-17T07:48:39.009Z,991.12
2018-05-17T07:49:39.007Z,991.13
2018-05-17T07:50:39.025Z,991.13
2018-05-17T07:51:39.017Z,991.14
2018-05-17T07:52:39.011Z,991.2
2018-05-17T07:53:39.023Z,991.19
2018-05-17T07:54:39.013Z,991.19
2018-05-17T07:55:39.092Z,991.16
2018-05-17T07:56:39.008Z,991.17
2018-05-17T07:57:39.017Z,991.2
2018-05-17T07:58:39.012Z,991.2
2018-05-17T07:59:39.014Z,991.26
2018-05-17T08:00:38.995Z,991.25
2018-05-17T08:01:38.997Z,991.27
2018-05-17T08:02:38.997Z,991.28
2018-05-17T08:03:39.016Z,991.28
2018-05-17T08:04:39.000Z,991.31
2018-05-17T08:05:39.000Z,991.32
2018-05-17T08:06:39.001Z,991.3
2018-05-17T08:07:38.991Z,991.27
2018-05-17T08:08:38.984Z,991.29
2018-05-17T08:09:38.985Z,991.26
2018-05-17T08:10:38.983Z,991.29
2018-05-17T08:11:38.984Z,991.23
2018-05-17T08:12:38.979Z,991.23
2018-05-17T08:13:38.979Z,991.28
2018-05-17T08:14:38.982Z,991.28
2018-05-17T08:15:38.976Z,991.33
2018-05-17T08:16:38.976Z,991.32
2018-05-17T08:17:38.977Z,991.32
2018-05-17T08:18:38.972Z,991.39
2018-05-17T08:19:38.971Z,991.35
2018-05-17T08:20:38.973Z,991.35
2018-05-17T08:21:38.970Z,991.3
2018-05-17T08:22:38.969Z,991.36
2018-05-17T08:23:38.970Z,991.38
2018-05-17T08:24:38.967Z,991.38
2018-05-17T08:25:38.969Z,991.39
2018-05-17T08:26:38.969Z,991.42
2018-05-17T08:27:38.974Z,991.47
2018-05-17T08:28:38.963Z,991.47
2018-05-17T08:29:38.959Z,991.46
2018-05-17T08:30:38.958Z,991.51
2018-05-17T08:31:38.960Z,991.54
2018-05-17T08:32:38.956Z,991.52
2018-05-17T08:33:38.954Z,991.56
2018-05-17T08:34:38.954Z,991.52
2018-05-17T08:35:38.959Z,991.56
2018-05-17T08:36:39.056Z,991.58
2018-05-17T08:37:38.950Z,991.64
2018-05-17T08:38:38.950Z,991.64
2018-05-17T08:39:38.949Z,991.66
2018-05-17T08:40:38.961Z,991.71
2018-05-17T08:41:38.947Z,991.75
2018-05-17T08:42:39.037Z,991.75
2018-05-17T08:43:38.940Z,991.71
2018-05-17T08:44:38.941Z,991.75
2018-05-17T08:45:38.964Z,991.74
2018-05-17T08:46:38.936Z,991.78
2018-05-17T08:47:38.937Z,991.76
2018-05-17T08:48:38.935Z,991.74
2018-05-17T08:49:38.936Z,991.78
2018-05-17T08:50:38.931Z,991.84
2018-05-17T08:51:38.929Z,991.86
2018-05-17T08:52:38.932Z,991.87
2018-05-17T08:53:38.945Z,991.83
2018-05-17T08:54:38.926Z,991.86
2018-05-17T08:55:38.929Z,991.85
2018-05-17T08:56:38.924Z,991.84
2018-05-17T08:57:38.923Z,991.83
2018-05-17T08:58:41.874Z,991.83
2018-05-17T08:59:38.966Z,991.79
2018-05-17T09:00:38.916Z,991.84
2018-05-17T09:01:38.916Z,991.83
2018-05-17T09:02:38.916Z,991.84
2018-05-17T09:03:38.921Z,991.84
2018-05-17T09:04:38.914Z,991.88
2018-05-17T09:05:38.913Z,991.87
2018-05-17T09:06:38.912Z,991.89
2018-05-17T09:07:38.914Z,991.91
2018-05-17T09:08:38.908Z,991.93
2018-05-17T09:09:38.919Z,991.93
2018-05-17T09:10:38.904Z,991.96
2018-05-17T09:11:38.903Z,991.93
2018-05-17T09:12:38.899Z,991.95
2018-05-17T09:13:38.930Z,991.92
2018-05-17T09:14:38.897Z,991.97
2018-05-17T09:15:38.897Z,991.95
2018-05-17T09:16:38.897Z,991.89
2018-05-17T09:17:38.928Z,991.91
2018-05-17T09:18:38.894Z,991.84
2018-05-17T09:19:38.891Z,991.84
2018-05-17T09:20:38.897Z,991.83
2018-05-17T09:21:38.900Z,991.83
2018-05-17T09:22:38.886Z,991.88
2018-05-17T09:23:38.890Z,991.9
2018-05-17T09:24:38.887Z,991.87
2018-05-17T09:25:38.955Z,991.9
2018-05-17T09:26:38.883Z,991.86
2018-05-17T09:27:38.883Z,991.93
2018-05-17T09:28:38.880Z,991.9
2018-05-17T09:29:38.881Z,991.92
2018-05-17T09:30:38.881Z,992
2018-05-17T09:31:38.879Z,992.01
2018-05-17T09:32:38.879Z,992.01
2018-05-17T09:33:38.880Z,992.02
2018-05-17T09:34:38.879Z,992.02
2018-05-17T09:35:38.900Z,992.06
2018-05-17T09:36:38.877Z,992.01
2018-05-17T09:37:38.875Z,992.02
2018-05-17T09:38:38.881Z,992.01
2018-05-17T09:39:38.882Z,991.99
2018-05-17T09:40:38.875Z,992.06
2018-05-17T09:41:38.877Z,992
2018-05-17T09:42:38.872Z,992.05
2018-05-17T09:43:38.873Z,992.04
2018-05-17T09:44:38.924Z,992.09
2018-05-17T09:45:38.872Z,992.16
2018-05-17T09:46:38.879Z,992.14
2018-05-17T09:47:38.962Z,992.15
2018-05-17T09:48:38.872Z,992.18
2018-05-17T09:49:38.881Z,992.21
2018-05-17T09:50:38.874Z,992.17
2018-05-17T09:51:38.871Z,992.18
2018-05-17T09:52:38.869Z,992.23
2018-05-17T09:53:38.893Z,992.22
2018-05-17T09:54:38.869Z,992.22
2018-05-17T09:55:38.884Z,992.21
2018-05-17T09:56:38.875Z,992.25
2018-05-17T09:57:38.873Z,992.3
2018-05-17T09:58:38.880Z,992.31
2018-05-17T09:59:39.119Z,992.28
2018-05-17T10:00:38.874Z,992.26
2018-05-17T10:01:38.888Z,992.26
2018-05-17T10:02:38.871Z,992.3
2018-05-17T10:03:38.875Z,992.26
2018-05-17T10:04:38.871Z,992.27
2018-05-17T10:05:38.870Z,992.32
2018-05-17T10:06:38.870Z,992.35
2018-05-17T10:07:38.872Z,992.33
2018-05-17T10:08:38.881Z,992.35
2018-05-17T10:09:38.873Z,992.31
2018-05-17T10:10:38.871Z,992.31
2018-05-17T10:11:38.856Z,992.29
2018-05-17T10:12:38.860Z,992.29
2018-05-17T10:13:38.857Z,992.32
2018-05-17T10:14:38.941Z,992.29
2018-05-17T10:15:38.885Z,992.25
2018-05-17T10:16:38.857Z,992.33
2018-05-17T10:17:38.859Z,992.33
2018-05-17T10:18:38.858Z,992.3
2018-05-17T10:19:38.858Z,992.32
2018-05-17T10:20:38.858Z,992.35
2018-05-17T10:21:38.857Z,992.33
2018-05-17T10:22:38.858Z,992.35
2018-05-17T10:53:03.498Z,992.5
2018-05-17T10:54:03.499Z,992.5
2018-05-17T10:55:03.489Z,992.51
2018-05-17T10:56:03.487Z,992.43
2018-05-17T10:57:03.478Z,992.35
2018-05-17T10:58:03.480Z,992.37
2018-05-17T10:59:03.476Z,992.37
2018-05-17T11:00:03.473Z,992.36
2018-05-17T11:01:03.471Z,992.37
2018-05-17T11:02:03.474Z,992.31
2018-05-17T11:03:03.474Z,992.31
2018-05-17T11:04:03.466Z,992.37
2018-05-17T11:05:03.464Z,992.39
2018-05-17T11:06:03.468Z,992.38
2018-05-17T11:07:03.466Z,992.39
2018-05-17T11:08:04.315Z,992.38
2018-05-17T11:09:03.464Z,992.36
2018-05-17T11:10:03.477Z,992.35
2018-05-17T11:11:03.463Z,992.36
2018-05-17T11:12:03.464Z,992.4
2018-05-17T11:13:03.467Z,992.44
2018-05-17T11:14:03.463Z,992.42
2018-05-17T11:15:03.463Z,992.46
2018-05-17T11:16:03.467Z,992.43
2018-05-17T11:17:03.462Z,992.43
2018-05-17T11:18:03.462Z,992.36
2018-05-17T11:19:03.461Z,992.36
2018-05-17T11:20:03.462Z,992.38
2018-05-17T11:21:03.461Z,992.41
2018-05-17T11:22:03.460Z,992.42
2018-05-17T11:23:03.470Z,992.37
2018-05-17T11:24:03.460Z,992.41
2018-05-17T11:25:03.461Z,992.35
2018-05-17T11:26:03.470Z,992.39
2018-05-17T11:27:03.459Z,992.34
2018-05-17T11:28:03.460Z,992.4
2018-05-17T11:29:03.459Z,992.37
2018-05-17T11:30:03.470Z,992.39
2018-05-17T11:31:03.461Z,992.38
2018-05-17T11:32:03.465Z,992.46
2018-05-17T11:33:03.492Z,992.5
2018-05-17T11:34:03.460Z,992.5
2018-05-17T11:35:03.536Z,992.51
2018-05-17T11:36:03.460Z,992.52
2018-05-17T11:37:03.502Z,992.52
2018-05-17T11:38:03.504Z,992.55
2018-05-17T11:39:03.462Z,992.52
2018-05-17T11:40:03.460Z,992.55
2018-05-17T11:41:03.477Z,992.5
2018-05-17T11:42:03.459Z,992.49
2018-05-17T11:43:03.460Z,992.45
2018-05-17T11:44:03.463Z,992.45
2018-05-17T11:45:03.459Z,992.46
2018-05-17T11:46:03.458Z,992.45
2018-05-17T11:47:03.457Z,992.43
2018-05-17T11:48:03.459Z,992.44
2018-05-17T11:49:03.460Z,992.37
2018-05-17T11:50:03.461Z,992.39
2018-05-17T11:51:03.458Z,992.39
2018-05-17T11:52:03.460Z,992.38
2018-05-17T11:53:03.457Z,992.44
2018-05-17T11:54:03.459Z,992.42
2018-05-17T11:55:03.466Z,992.41
2018-05-17T11:56:03.460Z,992.45
2018-05-17T11:57:03.460Z,992.45
2018-05-17T11:58:03.456Z,992.46
2018-05-17T11:59:03.461Z,992.46
2018-05-17T12:00:03.462Z,992.47
2018-05-17T12:01:03.459Z,992.39
2018-05-17T12:02:03.469Z,992.38
2018-05-17T12:03:03.465Z,992.34
2018-05-17T12:04:03.461Z,992.36
2018-05-17T12:05:03.482Z,992.34
2018-05-17T12:06:03.458Z,992.37
2018-05-17T12:07:03.462Z,992.41
2018-05-17T12:08:03.468Z,992.44
2018-05-17T12:09:03.460Z,992.41
2018-05-17T12:10:03.463Z,992.42
2018-05-17T12:11:03.474Z,992.41
2018-05-17T12:12:03.460Z,992.44
2018-05-17T12:13:03.459Z,992.42
2018-05-17T12:14:03.460Z,992.46
2018-05-17T12:15:03.467Z,992.49
2018-05-17T12:16:03.461Z,992.46
2018-05-17T12:17:03.461Z,992.47
2018-05-17T12:18:03.461Z,992.5
2018-05-17T12:19:03.465Z,992.46
2018-05-17T12:20:03.461Z,992.52
2018-05-17T12:21:03.460Z,992.52
2018-05-17T12:22:03.467Z,992.53
2018-05-17T12:23:03.482Z,992.49
2018-05-17T12:24:03.462Z,992.5
2018-05-17T12:25:03.462Z,992.47
2018-05-17T12:26:03.462Z,992.45
2018-05-17T12:27:03.463Z,992.43
2018-05-17T12:28:03.465Z,992.45
2018-05-17T12:29:03.467Z,992.48
2018-05-17T12:30:03.467Z,992.49
2018-05-17T12:31:03.466Z,992.5
2018-05-17T12:32:03.588Z,992.48
2018-05-17T12:33:03.470Z,992.44
2018-05-17T12:34:03.470Z,992.46
2018-05-17T12:35:03.469Z,992.45
2018-05-17T12:36:03.473Z,992.43
2018-05-17T12:37:03.498Z,992.43
2018-05-17T12:38:03.471Z,992.39
2018-05-17T12:39:03.474Z,992.4
2018-05-17T12:40:03.474Z,992.46
2018-05-17T12:41:03.483Z,992.42
2018-05-17T12:42:03.477Z,992.46
2018-05-17T12:43:03.481Z,992.48
2018-05-17T12:44:03.478Z,992.46
2018-05-17T12:45:03.480Z,992.46
2018-05-17T12:46:03.487Z,992.48
2018-05-17T12:47:03.489Z,992.48
2018-05-17T12:48:03.481Z,992.52
2018-05-17T12:49:03.488Z,992.56
2018-05-17T12:50:03.484Z,992.57
2018-05-17T12:51:03.488Z,992.54
2018-05-17T12:52:03.487Z,992.53
2018-05-17T12:53:03.502Z,992.54
2018-05-17T12:54:03.491Z,992.52
2018-05-17T12:55:03.492Z,992.48
2018-05-17T12:56:03.492Z,992.52
2018-05-17T12:57:03.491Z,992.54
2018-05-17T12:58:03.493Z,992.48
2018-05-17T12:59:03.495Z,992.53
2018-05-17T13:00:03.495Z,992.52
2018-05-17T13:01:03.496Z,992.5
2018-05-17T13:02:03.501Z,992.53
2018-05-17T13:03:03.502Z,992.54
2018-05-17T13:04:03.508Z,992.52
2018-05-17T13:05:03.501Z,992.48
2018-05-17T13:06:03.505Z,992.49
2018-05-17T13:07:03.549Z,992.47
2018-05-17T13:08:03.516Z,992.43
2018-05-17T13:09:03.522Z,992.45
2018-05-17T13:10:03.517Z,992.46